Thomson Majesty — 9HA2188 — position and weather

sailwx.info

Track history (hours):
 
Tides and Currents Weather Stations Pressure Air Temp Water Temp Dewpoint Dewpoint Depression Visibility Wind Speed Wind Dir Waves Ship Positions

Thomson Majesty

Last reported at 2014-Oct-15 19:20 UTC. Time now 2014-Oct-20 09:59 UTC.
Position N 36°22' E 022°24'.

Length 207 m; draft 6.2 m.

Type: Ship. MMSI: 248124000.

Date/timePositionNaut miles runAvg speedWind from/ knotsBaromVisibWave heightAir tempDewpointWater temp
2014-Oct-15 19:20N 36°22' E 022°24'3211.5
2014-Oct-15 16:33N 36°25' E 023°04'10 9.8
2014-Oct-15 15:33N 36°30' E 023°14'1313.4
2014-Oct-15 14:34N 36°41' E 023°05'2 1.6
2014-Oct-15 13:31N 36°41' E 023°03'0 0.1
2014-Oct-15 12:31N 36°41' E 023°03'0 0.0
2014-Oct-15 11:25N 36°41' E 023°03'0 0.0
2014-Oct-15 10:31N 36°41' E 023°03'0 0.0
2014-Oct-15 09:31N 36°41' E 023°03'0 0.0
2014-Oct-15 08:31N 36°41' E 023°03'0 0.0
2014-Oct-15 07:31N 36°41' E 023°03'0 0.0
2014-Oct-15 06:31N 36°41' E 023°03'0 0.0
2014-Oct-15 05:25N 36°41' E 023°03'0 0.0
2014-Oct-15 04:33N 36°41' E 023°03'0 0.2
2014-Oct-15 03:33N 36°41' E 023°03'1211.7
2014-Oct-15 02:33N 36°43' E 023°17'12 9.8
2014-Oct-15 01:21N 36°48' E 023°30'1012.9
2014-Oct-15 00:33N 36°54' E 023°41'1313.4
2014-Oct-14 23:33N 36°60' E 023°56'1110.7
2014-Oct-14 22:33N 37°10' E 024°01'1312.7
2014-Oct-14 21:33N 37°22' E 023°55'1212.4
2014-Oct-14 20:33N 37°32' E 023°47'1312.9
2014-Oct-14 19:33N 37°44' E 023°39'1212.4
2014-Oct-14 18:33N 37°56' E 023°37'1 1.0
2014-Oct-14 17:33N 37°56' E 023°38'0 0.0
2014-Oct-14 16:33N 37°56' E 023°38'0 0.0
2014-Oct-14 15:33N 37°56' E 023°38'0 0.0
2014-Oct-14 14:33N 37°56' E 023°38'0 0.0
2014-Oct-14 13:33N 37°56' E 023°38'0 0.0
2014-Oct-14 12:33N 37°56' E 023°38'0 0.0
2014-Oct-14 11:33N 37°56' E 023°38'0 0.0
2014-Oct-14 10:33N 37°56' E 023°38'0 0.0
2014-Oct-14 09:33N 37°56' E 023°38'0 0.0
2014-Oct-14 08:33N 37°56' E 023°38'0 0.0
2014-Oct-14 07:33N 37°56' E 023°38'0 0.0
2014-Oct-14 06:23N 37°56' E 023°38'0 0.0
2014-Oct-14 05:32N 37°56' E 023°38'0 0.0
2014-Oct-14 04:33N 37°56' E 023°38'0 0.4
2014-Oct-14 03:33N 37°56' E 023°38'7 7.1
2014-Oct-14 02:33N 37°50' E 023°41'1716.7
2014-Oct-14 01:33N 37°37' E 023°54'2016.8
2014-Oct-14 00:21N 37°30' E 024°18'1417.4
2014-Oct-13 23:33N 37°31' E 024°35'1716.9
2014-Oct-13 22:33N 37°32' E 024°57'1716.8
2014-Oct-13 21:33N 37°31' E 025°18'1313.4
2014-Oct-13 20:33N 37°35' E 025°34'1313.1
2014-Oct-13 19:33N 37°38' E 025°50'1313.1
2014-Oct-13 18:33N 37°42' E 026°06'1514.0
2014-Oct-13 17:30N 37°46' E 026°24'1111.9
2014-Oct-13 16:33N 37°49' E 026°38'25 1.4
2014-Oct-12 23:24N 37°42' E 026°07'1112.6
2014-Oct-12 22:33N 37°38' E 025°55'1312.8
2014-Oct-12 21:33N 37°36' E 025°39'1312.6
2014-Oct-12 20:33N 37°32' E 025°24'6 6.0
2014-Oct-12 19:33N 37°27' E 025°19'0 0.3
2014-Oct-12 18:19N 37°27' E 025°19'0 0.0
2014-Oct-12 17:31N 37°27' E 025°19'0 0.0
2014-Oct-12 16:25N 37°27' E 025°19'0 0.0
2014-Oct-12 15:31N 37°27' E 025°19'0 0.0
2014-Oct-12 14:31N 37°27' E 025°19'0 0.0
2014-Oct-12 13:31N 37°27' E 025°19'0 0.0
2014-Oct-12 12:31N 37°27' E 025°19'0 0.0
2014-Oct-12 11:31N 37°27' E 025°19'0 0.0
2014-Oct-12 10:31N 37°27' E 025°19'0 0.0
2014-Oct-12 09:31N 37°27' E 025°19'0 0.0
2014-Oct-12 08:25N 37°27' E 025°19'0 0.0
2014-Oct-12 07:25N 37°27' E 025°19'0 0.0
2014-Oct-12 06:31N 37°27' E 025°19'0 0.0
2014-Oct-12 05:33N 37°27' E 025°19'0 0.0
2014-Oct-12 04:33N 37°27' E 025°19'2 1.9
2014-Oct-12 03:33N 37°27' E 025°17'1110.6
2014-Oct-12 02:33N 37°20' E 025°07'1313.0
2014-Oct-12 01:33N 37°14' E 024°52'1313.1
2014-Oct-12 00:33N 37°07' E 024°39'1212.4
2014-Oct-11 23:33N 37°01' E 024°25'1212.3
2014-Oct-11 22:33N 36°54' E 024°12'1312.4
2014-Oct-11 21:33N 36°47' E 023°59'1312.5
2014-Oct-11 20:33N 36°41' E 023°46'1512.3
2014-Oct-11 19:21N 36°32' E 023°31'  
Track history (hours):
 
Tides and Currents Weather Stations Pressure Air Temp Water Temp Dewpoint Dewpoint Depression Visibility Wind Speed Wind Dir Waves Ship Positions

Thomson Majesty

Last reported at 2014-Oct-15 19:20 UTC. Time now 2014-Oct-20 09:59 UTC.
Position N 36°22' E 022°24'.

Length 207 m; draft 6.2 m.

Type: Ship. MMSI: 248124000.

Date/timePositionNaut miles runAvg speedWind from/ knotsBaromVisibWave heightAir tempDewpointWater temp
2014-Oct-15 19:20N 36°22' E 022°24'3211.5
2014-Oct-15 16:33N 36°25' E 023°04'10 9.8
2014-Oct-15 15:33N 36°30' E 023°14'1313.4
2014-Oct-15 14:34N 36°41' E 023°05'2 1.6
2014-Oct-15 13:31N 36°41' E 023°03'0 0.1
2014-Oct-15 12:31N 36°41' E 023°03'0 0.0
2014-Oct-15 11:25N 36°41' E 023°03'0 0.0
2014-Oct-15 10:31N 36°41' E 023°03'0 0.0
2014-Oct-15 09:31N 36°41' E 023°03'0 0.0
2014-Oct-15 08:31N 36°41' E 023°03'0 0.0
2014-Oct-15 07:31N 36°41' E 023°03'0 0.0
2014-Oct-15 06:31N 36°41' E 023°03'0 0.0
2014-Oct-15 05:25N 36°41' E 023°03'0 0.0
2014-Oct-15 04:33N 36°41' E 023°03'0 0.2
2014-Oct-15 03:33N 36°41' E 023°03'1211.7
2014-Oct-15 02:33N 36°43' E 023°17'12 9.8
2014-Oct-15 01:21N 36°48' E 023°30'1012.9
2014-Oct-15 00:33N 36°54' E 023°41'1313.4
2014-Oct-14 23:33N 36°60' E 023°56'1110.7
2014-Oct-14 22:33N 37°10' E 024°01'1312.7
2014-Oct-14 21:33N 37°22' E 023°55'1212.4
2014-Oct-14 20:33N 37°32' E 023°47'1312.9
2014-Oct-14 19:33N 37°44' E 023°39'1212.4
2014-Oct-14 18:33N 37°56' E 023°37'1 1.0
2014-Oct-14 17:33N 37°56' E 023°38'0 0.0
2014-Oct-14 16:33N 37°56' E 023°38'0 0.0
2014-Oct-14 15:33N 37°56' E 023°38'0 0.0
2014-Oct-14 14:33N 37°56' E 023°38'0 0.0
2014-Oct-14 13:33N 37°56' E 023°38'0 0.0
2014-Oct-14 12:33N 37°56' E 023°38'0 0.0
2014-Oct-14 11:33N 37°56' E 023°38'0 0.0
2014-Oct-14 10:33N 37°56' E 023°38'0 0.0
2014-Oct-14 09:33N 37°56' E 023°38'0 0.0
2014-Oct-14 08:33N 37°56' E 023°38'0 0.0
2014-Oct-14 07:33N 37°56' E 023°38'0 0.0
2014-Oct-14 06:23N 37°56' E 023°38'0 0.0
2014-Oct-14 05:32N 37°56' E 023°38'0 0.0
2014-Oct-14 04:33N 37°56' E 023°38'0 0.4
2014-Oct-14 03:33N 37°56' E 023°38'7 7.1
2014-Oct-14 02:33N 37°50' E 023°41'1716.7
2014-Oct-14 01:33N 37°37' E 023°54'2016.8
2014-Oct-14 00:21N 37°30' E 024°18'1417.4
2014-Oct-13 23:33N 37°31' E 024°35'1716.9
2014-Oct-13 22:33N 37°32' E 024°57'1716.8
2014-Oct-13 21:33N 37°31' E 025°18'1313.4
2014-Oct-13 20:33N 37°35' E 025°34'1313.1
2014-Oct-13 19:33N 37°38' E 025°50'1313.1
2014-Oct-13 18:33N 37°42' E 026°06'1514.0
2014-Oct-13 17:30N 37°46' E 026°24'1111.9
2014-Oct-13 16:33N 37°49' E 026°38'25 1.4
2014-Oct-12 23:24N 37°42' E 026°07'1112.6
2014-Oct-12 22:33N 37°38' E 025°55'1312.8
2014-Oct-12 21:33N 37°36' E 025°39'1312.6
2014-Oct-12 20:33N 37°32' E 025°24'6 6.0
2014-Oct-12 19:33N 37°27' E 025°19'0 0.3
2014-Oct-12 18:19N 37°27' E 025°19'0 0.0
2014-Oct-12 17:31N 37°27' E 025°19'0 0.0
2014-Oct-12 16:25N 37°27' E 025°19'0 0.0
2014-Oct-12 15:31N 37°27' E 025°19'0 0.0
2014-Oct-12 14:31N 37°27' E 025°19'0 0.0
2014-Oct-12 13:31N 37°27' E 025°19'0 0.0
2014-Oct-12 12:31N 37°27' E 025°19'0 0.0
2014-Oct-12 11:31N 37°27' E 025°19'0 0.0
2014-Oct-12 10:31N 37°27' E 025°19'0 0.0
2014-Oct-12 09:31N 37°27' E 025°19'0 0.0
2014-Oct-12 08:25N 37°27' E 025°19'0 0.0
2014-Oct-12 07:25N 37°27' E 025°19'0 0.0
2014-Oct-12 06:31N 37°27' E 025°19'0 0.0
2014-Oct-12 05:33N 37°27' E 025°19'0 0.0
2014-Oct-12 04:33N 37°27' E 025°19'2 1.9
2014-Oct-12 03:33N 37°27' E 025°17'1110.6
2014-Oct-12 02:33N 37°20' E 025°07'1313.0
2014-Oct-12 01:33N 37°14' E 024°52'1313.1
2014-Oct-12 00:33N 37°07' E 024°39'1212.4
2014-Oct-11 23:33N 37°01' E 024°25'1212.3
2014-Oct-11 22:33N 36°54' E 024°12'1312.4
2014-Oct-11 21:33N 36°47' E 023°59'1312.5
2014-Oct-11 20:33N 36°41' E 023°46'1512.3
2014-Oct-11 19:21N 36°32' E 023°31'  

Dump ship's entire track history